Time;durP1;ratioP1;P1;durP2;ratioP2;P2;SDS_P1;SDS_P2;PMS_P1;PMS_P2;Temp;Humidity;BMP_temperature;BMP_pressure;BME280_temperature;BME280_humidity;BME280_pressure;Samples;Min_cycle;Max_cycle;Signal;HPM_P1;HPM_P2
2023/08/12 00:00:31;;;;;;;4.15;2.10;;;23.10;86.80;;;;;;5069597;28;20064;-31
2023/08/12 00:02:59;;;;;;;3.63;2.40;;;21.50;80.40;;;;;;5071340;28;20084;-31
2023/08/12 00:05:26;;;;;;;2.65;2.30;;;22.10;87.00;;;;;;5072357;28;20109;-31
2023/08/12 00:07:52;;;;;;;3.03;2.30;;;21.60;78.30;;;;;;5072215;28;20565;-31
2023/08/12 00:10:19;;;;;;;3.88;2.33;;;21.70;86.00;;;;;;5071847;28;20127;-32
2023/08/12 00:12:46;;;;;;;3.00;2.17;;;;;;;;;;5072000;28;20132;-34
2023/08/12 00:15:13;;;;;;;3.28;2.15;;;;;;;;;;5072035;28;20132;-31
2023/08/12 00:17:41;;;;;;;2.80;2.25;;;21.90;86.50;;;;;;5072267;28;20044;-30
2023/08/12 00:20:10;;;;;;;5.57;2.40;;;21.90;86.90;;;;;;5064589;28;20049;-35
2023/08/12 00:22:37;;;;;;;3.28;2.20;;;22.00;86.20;;;;;;5054424;28;20059;-38
2023/08/12 00:25:05;;;;;;;3.20;2.10;;;22.00;86.30;;;;;;5071898;28;20135;-36
2023/08/12 00:27:32;;;;;;;2.50;2.08;;;22.30;86.40;;;;;;5071614;28;20094;-39
2023/08/12 00:29:59;;;;;;;2.80;2.17;;;;;;;;;;5072015;28;20135;-35
2023/08/12 00:32:26;;;;;;;3.05;1.98;;;21.70;86.00;;;;;;5071696;28;20131;-39
2023/08/12 00:34:52;;;;;;;3.10;2.33;;;22.50;87.20;;;;;;5071778;28;20466;-37
2023/08/12 00:37:20;;;;;;;3.63;2.13;;;20.90;73.30;;;;;;5062574;28;20495;-35
2023/08/12 00:39:47;;;;;;;4.03;1.90;;;22.10;74.30;;;;;;5062722;28;20531;-37
2023/08/12 00:42:14;;;;;;;2.67;2.10;;;21.80;86.10;;;;;;5071490;28;20135;-39
2023/08/12 00:44:41;;;;;;;4.05;1.70;;;21.90;86.20;;;;;;5071790;28;20561;-38
2023/08/12 00:47:08;;;;;;;4.53;2.30;;;;;;;;;;5071581;28;20144;-36
2023/08/12 00:49:36;;;;;;;2.33;1.90;;;23.00;86.80;;;;;;5071978;28;20091;-37
2023/08/12 00:52:03;;;;;;;2.33;1.80;;;22.00;70.10;;;;;;5071504;28;20127;-36
2023/08/12 00:54:31;;;;;;;3.55;2.10;;;21.80;83.70;;;;;;5059172;28;20132;-40
2023/08/12 00:56:58;;;;;;;3.03;2.20;;;22.40;82.40;;;;;;5051787;28;20164;-37
2023/08/12 00:59:25;;;;;;;2.17;1.90;;;22.40;86.40;;;;;;5059530;28;20135;-35
2023/08/12 01:01:51;;;;;;;2.13;1.90;;;21.80;86.90;;;;;;5066128;28;20124;-38
2023/08/12 01:04:18;;;;;;;2.85;2.08;;;22.70;75.60;;;;;;5060812;28;20127;-37
2023/08/12 01:06:45;;;;;;;3.75;2.00;;;22.40;86.50;;;;;;5071539;28;20139;-35
2023/08/12 01:09:12;;;;;;;2.40;2.17;;;;;;;;;;5071643;28;20056;-40
2023/08/12 01:11:42;;;;;;;3.20;2.20;;;21.70;79.90;;;;;;5054764;28;20084;-38
2023/08/12 01:14:13;;;;;;;3.05;2.13;;;22.00;86.30;;;;;;5051004;28;20172;-37
2023/08/12 01:16:41;;;;;;;3.67;2.47;;;21.50;85.80;;;;;;5051528;28;20136;-39
2023/08/12 01:19:10;;;;;;;3.55;2.20;;;21.20;85.60;;;;;;5051364;28;20132;-39
2023/08/12 01:21:38;;;;;;;3.03;2.05;;;21.60;75.50;;;;;;5052398;28;20132;-36
2023/08/12 01:24:07;;;;;;;2.30;1.80;;;21.90;86.10;;;;;;5051189;28;20131;-39
2023/08/12 01:26:34;;;;;;;3.05;2.00;;;21.00;86.20;;;;;;5051224;28;20585;-39
2023/08/12 01:29:01;;;;;;;2.78;2.00;;;;;;;;;;5051316;28;20131;-35
2023/08/12 01:31:30;;;;;;;3.47;2.00;;;22.10;86.70;;;;;;5051122;28;20137;-38
2023/08/12 01:34:07;;;;;;;2.25;2.05;;;22.00;79.70;;;;;;5050847;28;20136;-38
2023/08/12 01:36:34;;;;;;;2.60;1.90;;;21.60;86.20;;;;;;5065360;28;20110;-40
2023/08/12 01:39:01;;;;;;;3.10;2.30;;;;;;;;;;5071242;28;20493;-36
2023/08/12 01:41:29;;;;;;;2.70;1.95;;;21.60;86.30;;;;;;5074619;28;20087;-37
2023/08/12 01:43:56;;;;;;;2.83;1.90;;;21.20;71.80;;;;;;5074607;28;20136;-35
2023/08/12 01:46:23;;;;;;;3.05;2.20;;;21.90;75.80;;;;;;5074982;28;20136;-37
2023/08/12 01:48:50;;;;;;;2.53;2.00;;;20.80;78.60;;;;;;5075012;28;20128;-35
2023/08/12 01:51:17;;;;;;;2.38;2.05;;;21.90;78.10;;;;;;5074607;28;20110;-36
2023/08/12 01:53:44;;;;;;;3.58;2.00;;;;;;;;;;5062146;28;20144;-35
2023/08/12 01:56:10;;;;;;;2.75;2.00;;;21.80;86.00;;;;;;5054791;28;20127;-38
2023/08/12 01:58:38;;;;;;;2.20;1.95;;;22.10;86.40;;;;;;5056263;28;20132;-40
2023/08/12 02:01:05;;;;;;;3.08;1.90;;;22.00;87.10;;;;;;5074555;28;20136;-38
2023/08/12 02:03:32;;;;;;;2.25;2.00;;;22.40;73.70;;;;;;5074449;28;20131;-36
2023/08/12 02:05:58;;;;;;;2.20;2.00;;;21.80;86.00;;;;;;5074618;28;20127;-39
2023/08/12 02:08:25;;;;;;;2.72;2.10;;;21.60;86.50;;;;;;5074620;28;20132;-39
2023/08/12 02:10:52;;;;;;;2.80;2.00;;;;;;;;;;5073765;28;20078;-36
2023/08/12 02:13:19;;;;;;;2.50;2.15;;;21.80;86.50;;;;;;5074124;28;20123;-37
2023/08/12 02:15:47;;;;;;;2.20;1.90;;;21.10;69.70;;;;;;5074519;28;20161;-36
2023/08/12 02:18:14;;;;;;;2.55;2.10;;;;;;;;;;5074419;28;20172;-32
2023/08/12 02:20:41;;;;;;;2.40;1.83;;;22.30;86.50;;;;;;5074248;28;20127;-30
2023/08/12 02:23:08;;;;;;;2.40;1.90;;;21.70;86.10;;;;;;5073758;28;20124;-30
2023/08/12 02:25:35;;;;;;;3.38;2.10;;;21.60;81.90;;;;;;5074229;28;20080;-32
2023/08/12 02:28:02;;;;;;;2.22;1.88;;;21.40;85.90;;;;;;5073382;28;20070;-30
2023/08/12 02:30:30;;;;;;;2.42;1.88;;;21.90;70.10;;;;;;5074400;28;20135;-35
2023/08/12 02:32:58;;;;;;;2.50;2.00;;;21.80;70.00;;;;;;5073679;28;20503;-35
2023/08/12 02:35:25;;;;;;;3.70;1.92;;;;;;;;;;5074407;28;20128;-30
2023/08/12 02:37:51;;;;;;;2.10;1.90;;;21.40;74.00;;;;;;5062365;28;20119;-30
2023/08/12 02:40:18;;;;;;;3.05;2.17;;;20.90;86.00;;;;;;5067520;28;20128;-31
2023/08/12 02:42:45;;;;;;;3.20;2.03;;;;;;;;;;5067323;28;20140;-33
2023/08/12 02:45:12;;;;;;;2.40;1.95;;;21.00;85.80;;;;;;5059922;28;20083;-32
2023/08/12 02:47:39;;;;;;;4.18;1.90;;;21.90;78.70;;;;;;5061624;28;20482;-31
2023/08/12 02:50:08;;;;;;;2.17;1.90;;;21.90;80.70;;;;;;5063959;28;20124;-31
2023/08/12 02:52:35;;;;;;;2.33;1.90;;;;;;;;;;5063718;28;20442;-36
2023/08/12 02:55:02;;;;;;;2.28;2.00;;;21.50;86.10;;;;;;5062038;28;20399;-31
2023/08/12 02:57:29;;;;;;;2.83;1.98;;;22.60;86.70;;;;;;5064229;28;20127;-31
2023/08/12 02:59:56;;;;;;;3.22;2.10;;;21.80;70.10;;;;;;5065422;28;20128;-35
2023/08/12 03:02:23;;;;;;;2.15;1.80;;;22.10;86.90;;;;;;5065805;28;20123;-31
2023/08/12 03:04:50;;;;;;;2.80;1.88;;;;;;;;;;5073434;28;20127;-33
2023/08/12 03:07:18;;;;;;;3.60;2.20;;;21.30;86.10;;;;;;5073597;28;20124;-31
2023/08/12 03:09:45;;;;;;;2.22;1.90;;;;;;;;;;5073516;28;20132;-31
2023/08/12 03:12:12;;;;;;;2.20;1.95;;;;;;;;;;5073286;28;20131;-34
2023/08/12 03:14:39;;;;;;;2.97;2.08;;;22.20;86.60;;;;;;5073435;28;20136;-31
2023/08/12 03:17:06;;;;;;;2.35;1.90;;;;;;;;;;5071553;28;20053;-32
2023/08/12 03:19:33;;;;;;;2.35;2.10;;;20.90;85.80;;;;;;5053398;28;20140;-31
2023/08/12 03:21:59;;;;;;;2.38;1.83;;;21.60;87.00;;;;;;5053401;28;20124;-31
2023/08/12 03:24:27;;;;;;;2.00;1.80;;;21.80;70.20;;;;;;5053380;28;20088;-35
2023/08/12 03:26:54;;;;;;;2.45;2.03;;;;;;;;;;5053082;28;20128;-36
2023/08/12 03:29:21;;;;;;;2.20;1.83;;;21.80;87.10;;;;;;5071046;28;20087;-32
2023/08/12 03:31:48;;;;;;;2.30;1.90;;;22.40;86.70;;;;;;5072869;28;20549;-32
2023/08/12 03:34:15;;;;;;;2.47;1.90;;;;;;;;;;5072017;28;20127;-35
2023/08/12 03:36:42;;;;;;;3.03;1.92;;;22.20;86.50;;;;;;5059728;28;20132;-32
2023/08/12 03:39:09;;;;;;;3.05;2.00;;;;;;;;;;5072925;28;20079;-35
2023/08/12 03:41:37;;;;;;;2.50;1.90;;;22.20;86.50;;;;;;5073174;28;20136;-31
2023/08/12 03:44:04;;;;;;;2.15;1.80;;;21.50;86.50;;;;;;5072561;28;20135;-30
2023/08/12 03:46:31;;;;;;;2.15;1.83;;;21.00;86.30;;;;;;5072960;28;20197;-30
2023/08/12 03:48:57;;;;;;;3.05;2.08;;;21.60;86.20;;;;;;5072588;28;20080;-31
2023/08/12 03:51:24;;;;;;;2.13;1.90;;;22.10;86.50;;;;;;5069941;28;20486;-31
2023/08/12 03:53:51;;;;;;;1.98;1.75;;;;;;;;;;5052257;28;20127;-35
2023/08/12 03:56:18;;;;;;;3.08;1.83;;;21.80;86.30;;;;;;5052771;28;20131;-30
2023/08/12 03:58:46;;;;;;;2.22;2.00;;;22.10;86.50;;;;;;5055352;28;20476;-32
2023/08/12 04:01:13;;;;;;;3.15;2.00;;;21.70;86.30;;;;;;5072295;28;20123;-31
2023/08/12 04:03:39;;;;;;;2.15;1.95;;;21.70;74.00;;;;;;5071183;28;20516;-34
2023/08/12 04:06:06;;;;;;;2.55;1.90;;;21.20;72.00;;;;;;5072405;28;20128;-31
2023/08/12 04:08:34;;;;;;;1.83;1.60;;;21.90;86.30;;;;;;5070833;28;20127;-30
2023/08/12 04:11:00;;;;;;;3.92;1.80;;;21.50;85.60;;;;;;5065467;28;20044;-30
2023/08/12 04:13:27;;;;;;;2.40;1.90;;;21.50;86.30;;;;;;5072155;28;20124;-30
2023/08/12 04:15:55;;;;;;;2.30;1.98;;;21.00;77.60;;;;;;5072135;28;20131;-31
2023/08/12 04:18:22;;;;;;;2.85;1.80;;;21.80;75.70;;;;;;5071849;28;20123;-32
2023/08/12 04:20:49;;;;;;;2.70;1.98;;;21.80;85.90;;;;;;5072180;28;20131;-30
2023/08/12 04:23:16;;;;;;;2.63;1.73;;;;;;;;;;5071863;28;20128;-35
2023/08/12 04:25:44;;;;;;;2.40;1.80;;;22.30;86.60;;;;;;5065600;28;20076;-31
2023/08/12 04:28:11;;;;;;;2.00;1.70;;;21.90;79.90;;;;;;5051853;28;20547;-30
2023/08/12 04:30:41;;;;;;;2.08;1.70;;;21.60;74.50;;;;;;5051930;28;20137;-31
2023/08/12 04:33:09;;;;;;;2.50;1.98;;;21.80;86.30;;;;;;5051489;28;20476;-31
2023/08/12 04:35:35;;;;;;;1.90;1.70;;;21.80;86.10;;;;;;5052060;28;20132;-31
2023/08/12 04:38:02;;;;;;;3.05;1.80;;;;;;;;;;5069762;28;20273;-30
2023/08/12 04:40:29;;;;;;;3.03;1.92;;;22.00;86.50;;;;;;5071781;28;20137;-31
2023/08/12 04:42:56;;;;;;;2.67;2.00;;;21.70;86.40;;;;;;5065184;28;20072;-30
2023/08/12 04:45:23;;;;;;;3.15;2.00;;;;;;;;;;5051464;28;20076;-34
2023/08/12 04:47:50;;;;;;;3.33;2.00;;;21.70;86.80;;;;;;5052002;28;20132;-30
2023/08/12 04:50:18;;;;;;;3.53;1.90;;;21.80;70.20;;;;;;5051673;28;20123;-30
2023/08/12 04:52:46;;;;;;;2.03;1.80;;;21.80;87.20;;;;;;5051499;28;20106;-30
2023/08/12 04:55:12;;;;;;;2.60;1.73;;;21.80;86.80;;;;;;5051624;28;20091;-30
2023/08/12 04:57:39;;;;;;;2.90;2.13;;;21.70;74.70;;;;;;5051416;28;20443;-33
2023/08/12 05:00:08;;;;;;;3.47;2.13;;;22.00;87.00;;;;;;5056213;28;20133;-32
2023/08/12 05:02:34;;;;;;;2.05;1.75;;;22.10;86.80;;;;;;5051636;28;20060;-32
2023/08/12 05:05:01;;;;;;;2.58;2.00;;;;;;;;;;5051458;28;20132;-36
2023/08/12 05:07:31;;;;;;;2.83;2.00;;;21.80;70.10;;;;;;5062716;28;20513;-31
2023/08/12 05:09:57;;;;;;;2.63;1.88;;;22.10;74.00;;;;;;5071599;28;20053;-32
2023/08/12 05:12:24;;;;;;;3.05;1.98;;;21.40;86.50;;;;;;5071096;28;20140;-31
2023/08/12 05:14:51;;;;;;;2.40;2.05;;;22.40;86.90;;;;;;5074306;28;20556;-31
2023/08/12 05:17:18;;;;;;;2.30;1.90;;;;;;;;;;5075449;28;20124;-36
2023/08/12 05:19:45;;;;;;;2.78;1.92;;;21.70;87.10;;;;;;5075531;28;20083;-31
2023/08/12 05:22:11;;;;;;;1.95;1.73;;;22.10;86.90;;;;;;5075015;28;20748;-30
2023/08/12 05:24:39;;;;;;;2.60;1.90;;;21.80;70.10;;;;;;5075402;28;20131;-33
2023/08/12 05:27:06;;;;;;;2.28;1.90;;;22.00;76.60;;;;;;5075109;28;20135;-31
2023/08/12 05:29:33;;;;;;;2.33;2.03;;;21.60;86.60;;;;;;5062440;28;20049;-31
2023/08/12 05:32:00;;;;;;;2.65;2.17;;;;;;;;;;5055429;28;20144;-31
2023/08/12 05:34:26;;;;;;;2.30;1.83;;;21.50;72.10;;;;;;5055019;28;20048;-31
2023/08/12 05:36:53;;;;;;;2.78;2.17;;;22.00;86.50;;;;;;5063276;28;20128;-30
2023/08/12 05:39:20;;;;;;;2.90;2.17;;;22.70;87.00;;;;;;5074959;28;20131;-31
2023/08/12 05:41:48;;;;;;;3.47;2.20;;;22.20;81.70;;;;;;5074926;28;20131;-32
2023/08/12 05:44:15;;;;;;;3.33;2.17;;;21.90;79.80;;;;;;5074957;28;20123;-31
2023/08/12 05:46:42;;;;;;;3.08;2.30;;;22.30;87.60;;;;;;5074351;28;20486;-31
2023/08/12 05:49:09;;;;;;;2.30;1.90;;;;;;;;;;5074997;28;20132;-35
2023/08/12 05:51:36;;;;;;;2.28;1.80;;;21.50;86.30;;;;;;5074693;28;20048;-30
2023/08/12 05:54:02;;;;;;;3.17;2.20;;;;;;;;;;5074808;28;20128;-35
2023/08/12 05:56:29;;;;;;;2.65;2.00;;;;;;;;;;5074924;28;20127;-35
2023/08/12 05:58:57;;;;;;;2.25;2.05;;;21.70;87.10;;;;;;5074838;28;20124;-30
2023/08/12 06:01:24;;;;;;;2.17;1.90;;;21.80;86.80;;;;;;5074493;28;20131;-31
2023/08/12 06:03:50;;;;;;;3.22;1.83;;;21.50;86.40;;;;;;5058738;28;20100;-32
2023/08/12 06:06:17;;;;;;;2.55;1.80;;;20.90;73.20;;;;;;5054608;28;20053;-32
2023/08/12 06:08:44;;;;;;;2.47;1.95;;;;;;;;;;5054781;28;20124;-30
2023/08/12 06:11:11;;;;;;;1.98;1.60;;;;;;;;;;5054430;28;20136;-30
2023/08/12 06:13:38;;;;;;;2.33;1.88;;;21.50;86.20;;;;;;5054338;28;20124;-30
2023/08/12 06:16:06;;;;;;;2.83;1.80;;;22.20;87.40;;;;;;5055869;28;20127;-30
2023/08/12 06:18:33;;;;;;;1.52;1.40;;;21.60;74.20;;;;;;5074474;28;20455;-30
2023/08/12 06:21:00;;;;;;;2.40;2.00;;;22.80;85.10;;;;;;5072748;28;20139;-31
2023/08/12 06:23:27;;;;;;;2.22;1.70;;;21.50;87.00;;;;;;5074104;28;20048;-30
2023/08/12 06:25:53;;;;;;;1.95;1.60;;;21.40;86.80;;;;;;5073579;28;20124;-30
2023/08/12 06:28:20;;;;;;;2.00;1.70;;;22.00;78.70;;;;;;5074387;28;20482;-31
2023/08/12 06:30:48;;;;;;;3.08;1.80;;;21.70;86.00;;;;;;5074736;28;20131;-31
2023/08/12 06:33:16;;;;;;;1.67;1.58;;;21.50;85.50;;;;;;5073847;28;20047;-31
2023/08/12 06:35:42;;;;;;;2.20;1.70;;;21.60;71.90;;;;;;5073881;28;20127;-33
2023/08/12 06:38:10;;;;;;;2.05;1.55;;;21.30;86.50;;;;;;5073433;28;20127;-30
2023/08/12 06:40:36;;;;;;;2.33;1.80;;;21.80;75.40;;;;;;5073954;28;20059;-34
2023/08/12 06:43:03;;;;;;;3.28;1.70;;;20.80;85.90;;;;;;5073847;28;20127;-31
2023/08/12 06:45:30;;;;;;;2.45;1.88;;;21.40;86.20;;;;;;5073800;28;20128;-30
2023/08/12 06:47:57;;;;;;;3.00;1.90;;;21.50;77.70;;;;;;5074004;28;20546;-31
2023/08/12 06:50:25;;;;;;;2.20;1.80;;;21.80;86.00;;;;;;5073670;28;20131;-31
2023/08/12 06:52:52;;;;;;;2.08;1.75;;;21.90;86.80;;;;;;5071700;28;20132;-30
2023/08/12 06:55:19;;;;;;;3.75;2.00;;;;;;;;;;5053822;28;20455;-32
2023/08/12 06:57:46;;;;;;;3.83;1.85;;;22.50;87.20;;;;;;5053850;28;20475;-30
2023/08/12 07:00:13;;;;;;;2.92;1.92;;;21.90;69.90;;;;;;5065040;28;20124;-35
2023/08/12 07:02:42;;;;;;;2.22;1.95;;;21.70;86.40;;;;;;5061770;28;20053;-30
2023/08/12 07:05:09;;;;;;;2.40;1.90;;;;;;;;;;5063001;28;20574;-36
2023/08/12 07:07:37;;;;;;;4.32;2.35;;;21.60;80.80;;;;;;5064444;28;20128;-31
2023/08/12 07:10:06;;;;;;;2.72;1.90;;;22.10;86.60;;;;;;5061435;28;20123;-31
2023/08/12 07:12:33;;;;;;;2.55;1.83;;;23.10;79.90;;;;;;5067939;28;20479;-32
2023/08/12 07:14:59;;;;;;;3.25;2.03;;;21.40;84.70;;;;;;5065670;28;20036;-30
2023/08/12 07:17:26;;;;;;;3.38;2.10;;;22.00;75.70;;;;;;5064260;28;20128;-32
2023/08/12 07:19:53;;;;;;;2.72;1.90;;;;;;;;;;5061833;28;20119;-30
2023/08/12 07:22:20;;;;;;;2.53;2.00;;;20.90;86.10;;;;;;5062134;28;20132;-32
2023/08/12 07:24:48;;;;;;;2.83;2.08;;;22.00;86.50;;;;;;5062633;28;20043;-40
2023/08/12 07:27:15;;;;;;;2.80;2.30;;;22.10;86.80;;;;;;5060127;28;20069;-30
2023/08/12 07:29:42;;;;;;;2.97;2.10;;;;;;;;;;5060096;28;20124;-36
2023/08/12 07:32:08;;;;;;;2.55;2.20;;;23.00;86.90;;;;;;5052771;28;20072;-30
2023/08/12 07:34:35;;;;;;;4.95;1.88;;;22.70;87.10;;;;;;5060723;28;20521;-30
2023/08/12 07:37:02;;;;;;;5.38;2.17;;;21.60;75.80;;;;;;5072677;28;20123;-34
2023/08/12 07:39:29;;;;;;;3.45;2.50;;;21.90;86.30;;;;;;5072804;28;20088;-32
2023/08/12 07:41:57;;;;;;;3.10;2.15;;;21.90;86.70;;;;;;5072588;28;20098;-30
2023/08/12 07:44:23;;;;;;;3.60;2.40;;;22.30;86.90;;;;;;5061947;28;20123;-36
2023/08/12 07:46:50;;;;;;;7.40;2.25;;;21.60;72.00;;;;;;5063807;28;20127;-36
2023/08/12 07:49:17;;;;;;;3.90;2.20;;;21.50;86.60;;;;;;5053435;28;20053;-40
2023/08/12 07:51:44;;;;;;;3.22;2.30;;;21.10;86.00;;;;;;5052365;28;20705;-39
2023/08/12 07:54:12;;;;;;;3.38;2.20;;;21.90;76.90;;;;;;5052597;28;20140;-35
2023/08/12 07:56:39;;;;;;;3.17;2.30;;;;;;;;;;5052600;28;20494;-37
2023/08/12 07:59:07;;;;;;;2.88;2.25;;;22.60;71.40;;;;;;5060471;28;20076;-36
2023/08/12 08:01:34;;;;;;;2.75;2.33;;;22.20;86.60;;;;;;5058880;28;20127;-36
2023/08/12 08:04:01;;;;;;;5.75;2.38;;;;;;;;;;5052277;28;20072;-37
2023/08/12 08:06:28;;;;;;;4.60;2.60;;;22.60;86.80;;;;;;5052759;28;20080;-35
2023/08/12 08:08:55;;;;;;;3.65;2.30;;;21.60;75.10;;;;;;5056366;28;20053;-36
2023/08/12 08:11:22;;;;;;;2.30;2.10;;;22.80;77.20;;;;;;5072318;28;20059;-39
2023/08/12 08:13:49;;;;;;;3.03;2.20;;;;;;;;;;5071951;28;20127;-37
2023/08/12 08:16:17;;;;;;;4.40;2.45;;;22.00;86.50;;;;;;5072357;28;20098;-38
2023/08/12 08:18:44;;;;;;;5.60;2.63;;;21.10;86.90;;;;;;5059147;28;20128;-30
2023/08/12 08:21:10;;;;;;;3.60;2.55;;;21.90;86.70;;;;;;5050927;28;20482;-31
2023/08/12 08:23:37;;;;;;;3.55;2.47;;;;;;;;;;5051986;28;20128;-32
2023/08/12 08:26:04;;;;;;;4.07;2.15;;;22.20;86.80;;;;;;5052082;28;20135;-36
2023/08/12 08:28:31;;;;;;;2.72;2.30;;;21.90;86.70;;;;;;5052292;28;20049;-38
2023/08/12 08:30:58;;;;;;;3.10;2.38;;;22.10;75.30;;;;;;5052186;28;20114;-37
2023/08/12 08:33:26;;;;;;;4.03;2.30;;;20.90;86.10;;;;;;5059797;28;20102;-35
2023/08/12 08:35:53;;;;;;;3.63;2.28;;;;;;;;;;5067640;28;20140;-39
2023/08/12 08:38:20;;;;;;;3.10;2.38;;;;;;;;;;5071849;28;20131;-33
2023/08/12 08:40:47;;;;;;;4.68;2.20;;;22.40;87.10;;;;;;5071705;28;20083;-38
2023/08/12 08:43:14;;;;;;;3.10;2.10;;;22.00;70.70;;;;;;5071979;28;20200;-36
2023/08/12 08:45:41;;;;;;;5.20;2.20;;;;;;;;;;5065971;28;20127;-36
2023/08/12 08:48:08;;;;;;;2.72;2.28;;;22.90;74.00;;;;;;5068537;28;20098;-36
2023/08/12 08:50:36;;;;;;;2.75;2.10;;;23.00;88.20;;;;;;5071793;28;20136;-35
2023/08/12 08:53:03;;;;;;;4.63;2.63;;;21.90;86.80;;;;;;5057877;28;20585;-31
2023/08/12 08:55:30;;;;;;;2.45;2.15;;;;;;;;;;5051717;28;20069;-33
2023/08/12 08:57:57;;;;;;;4.40;2.30;;;22.50;84.00;;;;;;5051916;28;20136;-30
2023/08/12 09:00:24;;;;;;;4.47;2.58;;;23.10;87.40;;;;;;5068067;28;20049;-30
2023/08/12 09:02:51;;;;;;;4.72;2.47;;;22.40;87.40;;;;;;5068302;28;20052;-31
2023/08/12 09:05:18;;;;;;;4.20;2.30;;;;;;;;;;5060986;28;20210;-32
2023/08/12 09:07:46;;;;;;;4.15;2.70;;;21.80;80.20;;;;;;5071680;28;20127;-36
2023/08/12 09:10:13;;;;;;;4.22;2.70;;;23.20;78.50;;;;;;5057700;28;20124;-36
2023/08/12 09:12:41;;;;;;;5.00;2.70;;;22.60;87.30;;;;;;5051451;28;20135;-40
2023/08/12 09:15:09;;;;;;;4.50;2.92;;;21.90;87.20;;;;;;5054107;28;20119;-40
2023/08/12 09:17:36;;;;;;;3.17;2.75;;;22.70;87.40;;;;;;5058466;28;20458;-40
2023/08/12 09:20:07;;;;;;;3.45;3.00;;;22.20;75.90;;;;;;5057329;28;20464;-39
2023/08/12 09:22:34;;;;;;;4.75;2.90;;;20.90;86.70;;;;;;5060309;28;20049;-39
2023/08/12 09:25:04;;;;;;;7.05;3.20;;;22.40;87.70;;;;;;5058016;28;20577;-31
2023/08/12 09:27:31;;;;;;;3.70;3.10;;;21.50;88.00;;;;;;5052950;28;20056;-31
2023/08/12 09:29:58;;;;;;;5.00;2.80;;;22.40;87.60;;;;;;5051505;28;20485;-32
2023/08/12 09:32:25;;;;;;;4.45;2.97;;;21.90;87.40;;;;;;5051360;28;20045;-30
2023/08/12 09:34:53;;;;;;;4.95;3.20;;;22.10;72.60;;;;;;5052771;28;20056;-34
2023/08/12 09:37:20;;;;;;;3.95;2.92;;;;;;;;;;5059784;28;20127;-34
2023/08/12 09:39:47;;;;;;;4.22;2.88;;;22.50;88.60;;;;;;5060845;28;20049;-30
2023/08/12 09:42:16;;;;;;;4.50;2.75;;;22.50;80.50;;;;;;5059586;28;20044;-31
2023/08/12 09:44:42;;;;;;;4.35;2.97;;;22.10;87.60;;;;;;5051377;28;20131;-31
2023/08/12 09:47:09;;;;;;;3.97;3.00;;;;;;;;;;5050661;28;20441;-32
2023/08/12 09:49:36;;;;;;;4.65;3.10;;;21.20;76.40;;;;;;5050392;28;20123;-34
2023/08/12 09:52:03;;;;;;;5.68;2.97;;;22.40;87.80;;;;;;5050927;28;20072;-37
2023/08/12 09:54:31;;;;;;;4.65;2.53;;;21.10;87.70;;;;;;5050746;28;20143;-39
2023/08/12 09:56:59;;;;;;;3.97;2.90;;;22.00;71.60;;;;;;5050927;28;20102;-33
2023/08/12 09:59:30;;;;;;;4.35;2.92;;;22.00;71.70;;;;;;5057561;28;20444;-32
2023/08/12 10:01:57;;;;;;;4.75;2.83;;;;;;;;;;5065233;28;20421;-35
2023/08/12 10:04:25;;;;;;;3.95;2.72;;;;;;;;;;5063299;28;20143;-33
2023/08/12 10:06:52;;;;;;;5.53;2.97;;;22.20;88.00;;;;;;5059984;28;20063;-39
2023/08/12 10:09:19;;;;;;;5.00;2.70;;;;;;;;;;5068745;28;20128;-33
2023/08/12 10:11:46;;;;;;;4.03;2.72;;;22.00;71.80;;;;;;5069822;28;20124;-37
2023/08/12 10:14:13;;;;;;;4.78;2.92;;;23.00;75.00;;;;;;5060143;28;20132;-36
2023/08/12 10:16:42;;;;;;;3.05;2.67;;;22.80;88.30;;;;;;5054512;28;20132;-35
2023/08/12 10:19:11;;;;;;;4.10;3.10;;;22.20;88.20;;;;;;5054775;28;20131;-40
2023/08/12 10:21:38;;;;;;;4.22;3.05;;;21.70;88.00;;;;;;5054393;28;20136;-37
2023/08/12 10:24:05;;;;;;;3.05;2.55;;;22.00;71.90;;;;;;5058508;28;20140;-34
2023/08/12 10:26:33;;;;;;;2.97;2.65;;;21.70;72.10;;;;;;5055520;28;20696;-32
2023/08/12 10:29:00;;;;;;;3.40;2.88;;;22.10;88.30;;;;;;5056548;28;20045;-31
2023/08/12 10:31:27;;;;;;;4.05;2.70;;;;;;;;;;5054469;28;20091;-31
2023/08/12 10:33:57;;;;;;;3.38;2.58;;;21.30;87.80;;;;;;5070137;28;20437;-31
2023/08/12 10:36:24;;;;;;;3.58;2.30;;;21.00;87.60;;;;;;5073423;28;20131;-31
2023/08/12 10:38:51;;;;;;;4.57;2.60;;;21.70;88.70;;;;;;5062895;28;20044;-32
2023/08/12 10:41:18;;;;;;;4.40;2.33;;;22.00;72.00;;;;;;5068177;28;20190;-35
2023/08/12 10:43:55;;;;;;;3.55;2.63;;;22.30;88.60;;;;;;5060404;28;20068;-32
2023/08/12 10:46:29;;;;;;;4.53;2.50;;;22.00;72.00;;;;;;5058482;28;20056;-35
2023/08/12 10:49:03;;;;;;;3.10;2.63;;;22.00;72.10;;;;;;5064914;28;20094;-31
2023/08/12 10:51:44;;;;;;;3.30;2.40;;;21.50;87.40;;;;;;5062667;28;20080;-31
2023/08/12 10:54:16;;;;;;;5.07;2.40;;;22.00;72.10;;;;;;5059883;28;20127;-35
2023/08/12 10:57:05;;;;;;;3.10;2.40;;;21.80;79.20;;;;;;5060987;28;20044;-35
2023/08/12 10:59:57;;;;;;;3.80;2.17;;;22.00;72.20;;;;;;5063651;28;20053;-34
2023/08/12 11:02:28;;;;;;;4.97;2.60;;;22.00;72.20;;;;;;5059187;28;20123;-34
2023/08/12 11:04:56;;;;;;;3.28;2.50;;;22.00;72.20;;;;;;5061882;28;20041;-33
2023/08/12 11:07:29;;;;;;;6.28;2.55;;;22.00;72.30;;;;;;5067515;28;20132;-30
2023/08/12 11:09:59;;;;;;;4.20;2.50;;;22.00;72.20;;;;;;5060270;28;20207;-36
2023/08/12 11:12:31;;;;;;;9.25;3.40;;;22.00;72.30;;;;;;5051149;28;20044;-35
2023/08/12 11:14:58;;;;;;;4.75;2.90;;;21.50;89.00;;;;;;5051253;28;20119;-31
2023/08/12 11:17:30;;;;;;;4.55;2.75;;;21.90;88.50;;;;;;5057071;28;20557;-31
2023/08/12 11:19:58;;;;;;;5.53;2.95;;;21.20;88.10;;;;;;5051551;28;20705;-31
2023/08/12 11:22:24;;;;;;;4.72;2.80;;;21.80;88.80;;;;;;5051900;28;20128;-30
2023/08/12 11:24:51;;;;;;;7.85;3.05;;;22.30;77.20;;;;;;5051954;28;20493;-32
2023/08/12 11:27:18;;;;;;;6.88;2.97;;;22.00;89.30;;;;;;5059656;28;20123;-31
2023/08/12 11:29:45;;;;;;;6.10;2.85;;;;;;;;;;5069387;28;20581;-33
2023/08/12 11:32:12;;;;;;;5.97;2.85;;;22.30;88.80;;;;;;5058476;28;20136;-32
2023/08/12 11:34:39;;;;;;;5.88;3.10;;;;;;;;;;5051989;28;20160;-33
2023/08/12 11:37:07;;;;;;;4.80;3.03;;;22.10;82.50;;;;;;5062107;28;20118;-31
2023/08/12 11:39:34;;;;;;;4.72;2.85;;;22.70;89.70;;;;;;5070841;28;20135;-30
2023/08/12 11:42:01;;;;;;;4.18;2.70;;;;;;;;;;5067972;28;20124;-33
2023/08/12 11:44:28;;;;;;;4.78;2.90;;;22.10;79.30;;;;;;5056019;28;20135;-33
2023/08/12 11:46:54;;;;;;;5.00;2.70;;;22.00;88.80;;;;;;5060778;28;20491;-31
2023/08/12 11:49:21;;;;;;;5.18;2.80;;;21.40;88.90;;;;;;5062293;28;20144;-32
2023/08/12 11:51:48;;;;;;;3.95;2.78;;;21.70;73.30;;;;;;5069733;28;20048;-33
2023/08/12 11:54:16;;;;;;;5.03;2.50;;;23.00;88.90;;;;;;5071428;28;20048;-31
2023/08/12 11:56:43;;;;;;;3.88;2.28;;;;;;;;;;5065715;28;20215;-32
2023/08/12 11:59:11;;;;;;;5.05;2.60;;;;;;;;;;5069653;28;20124;-34
2023/08/12 12:01:37;;;;;;;3.78;2.70;;;22.40;88.40;;;;;;5069425;28;20044;-31
2023/08/12 12:04:04;;;;;;;4.38;2.67;;;21.30;71.80;;;;;;5070953;28;20044;-33
2023/08/12 12:06:32;;;;;;;4.57;2.65;;;22.10;72.20;;;;;;5071025;28;20230;-33
2023/08/12 12:09:04;;;;;;;4.50;2.60;;;21.80;88.00;;;;;;5061632;28;20119;-30
2023/08/12 12:11:32;;;;;;;4.07;2.30;;;22.80;80.40;;;;;;5056507;28;20541;-31
2023/08/12 12:14:02;;;;;;;4.38;2.67;;;22.10;82.30;;;;;;5070012;28;20131;-36
2023/08/12 12:16:40;;;;;;;4.10;2.40;;;21.40;83.50;;;;;;5058495;28;20136;-37
2023/08/12 12:19:10;;;;;;;4.97;2.58;;;21.90;81.00;;;;;;5049385;28;20051;-36
2023/08/12 12:21:41;;;;;;;4.47;2.45;;;22.30;82.00;;;;;;5050050;28;20131;-38
2023/08/12 12:24:08;;;;;;;3.92;2.28;;;22.60;76.60;;;;;;5049647;28;20490;-35
2023/08/12 12:26:36;;;;;;;5.35;2.25;;;22.10;72.30;;;;;;5057214;28;20454;-35
2023/08/12 12:29:04;;;;;;;4.38;2.70;;;;;;;;;;5064126;28;20135;-37
2023/08/12 12:31:33;;;;;;;3.17;2.53;;;21.70;75.80;;;;;;5057885;28;20060;-36
2023/08/12 12:34:00;;;;;;;3.15;2.40;;;22.40;82.00;;;;;;5056716;28;20044;-35
2023/08/12 12:36:26;;;;;;;2.72;2.05;;;22.30;89.40;;;;;;5058701;28;20617;-38
2023/08/12 12:38:53;;;;;;;3.08;2.10;;;;;;;;;;5059218;28;20132;-36
2023/08/12 12:41:20;;;;;;;5.07;2.40;;;23.10;88.90;;;;;;5061277;28;20123;-36
2023/08/12 12:43:49;;;;;;;4.05;2.30;;;22.20;88.30;;;;;;5058823;28;20132;-38
2023/08/12 12:46:16;;;;;;;3.22;2.30;;;22.00;88.00;;;;;;5058181;28;20115;-37
2023/08/12 12:48:43;;;;;;;4.07;1.98;;;22.40;89.10;;;;;;5049674;28;20052;-39
2023/08/12 12:51:10;;;;;;;3.90;2.10;;;21.80;79.30;;;;;;5058478;28;20056;-35
2023/08/12 12:53:36;;;;;;;3.15;2.17;;;21.80;88.90;;;;;;5059090;28;20147;-40
2023/08/12 12:56:03;;;;;;;4.07;2.20;;;21.90;88.40;;;;;;5059002;28;20465;-37
2023/08/12 12:58:31;;;;;;;3.28;2.10;;;22.60;85.40;;;;;;5058568;28;20103;-36
2023/08/12 13:00:59;;;;;;;3.63;2.40;;;22.80;80.40;;;;;;5058797;28;20128;-31
2023/08/12 13:03:26;;;;;;;3.25;2.15;;;22.40;79.10;;;;;;5058123;28;20140;-32
2023/08/12 13:05:53;;;;;;;2.92;2.20;;;21.60;88.80;;;;;;5054319;28;20124;-31